sensor_id;sensor_type;location;lat;lon;timestamp;P1;durP1;ratioP1;P2;durP2;ratioP2
10645;SDS011;5371;49.782;9.932;2022-09-01T00:02:24;3.60;;;2.55;;
10645;SDS011;5371;49.782;9.932;2022-09-01T00:04:52;3.53;;;2.40;;
10645;SDS011;5371;49.782;9.932;2022-09-01T00:07:22;2.72;;;2.53;;
10645;SDS011;5371;49.782;9.932;2022-09-01T00:09:49;6.32;;;2.90;;
10645;SDS011;5371;49.782;9.932;2022-09-01T00:12:17;5.75;;;2.38;;
10645;SDS011;5371;49.782;9.932;2022-09-01T00:14:48;3.63;;;2.30;;
10645;SDS011;5371;49.782;9.932;2022-09-01T00:17:15;4.05;;;2.33;;
10645;SDS011;5371;49.782;9.932;2022-09-01T00:19:42;2.88;;;2.50;;
10645;SDS011;5371;49.782;9.932;2022-09-01T00:22:09;4.65;;;2.72;;
10645;SDS011;5371;49.782;9.932;2022-09-01T00:24:36;6.00;;;2.47;;
10645;SDS011;5371;49.782;9.932;2022-09-01T00:27:03;3.95;;;2.63;;
10645;SDS011;5371;49.782;9.932;2022-09-01T00:29:30;7.68;;;2.80;;
10645;SDS011;5371;49.782;9.932;2022-09-01T00:31:58;4.30;;;2.60;;
10645;SDS011;5371;49.782;9.932;2022-09-01T00:34:25;2.75;;;2.45;;
10645;SDS011;5371;49.782;9.932;2022-09-01T00:36:52;2.65;;;2.35;;
10645;SDS011;5371;49.782;9.932;2022-09-01T00:39:20;4.28;;;2.30;;
10645;SDS011;5371;49.782;9.932;2022-09-01T00:41:47;2.55;;;2.35;;
10645;SDS011;5371;49.782;9.932;2022-09-01T00:44:16;2.88;;;2.40;;
10645;SDS011;5371;49.782;9.932;2022-09-01T00:46:48;4.25;;;2.50;;
10645;SDS011;5371;49.782;9.932;2022-09-01T00:49:18;2.83;;;2.40;;
10645;SDS011;5371;49.782;9.932;2022-09-01T00:51:48;2.97;;;2.50;;
10645;SDS011;5371;49.782;9.932;2022-09-01T00:54:20;3.22;;;2.42;;
10645;SDS011;5371;49.782;9.932;2022-09-01T00:56:49;2.90;;;2.60;;
10645;SDS011;5371;49.782;9.932;2022-09-01T00:59:18;3.58;;;2.40;;
10645;SDS011;5371;49.782;9.932;2022-09-01T01:01:47;5.57;;;2.50;;
10645;SDS011;5371;49.782;9.932;2022-09-01T01:04:14;3.75;;;2.60;;
10645;SDS011;5371;49.782;9.932;2022-09-01T01:06:43;3.63;;;2.47;;
10645;SDS011;5371;49.782;9.932;2022-09-01T01:09:14;3.42;;;2.58;;
10645;SDS011;5371;49.782;9.932;2022-09-01T01:11:42;3.05;;;2.50;;
10645;SDS011;5371;49.782;9.932;2022-09-01T01:14:10;3.83;;;2.70;;
10645;SDS011;5371;49.782;9.932;2022-09-01T01:16:40;3.53;;;2.67;;
10645;SDS011;5371;49.782;9.932;2022-09-01T01:19:10;5.53;;;2.72;;
10645;SDS011;5371;49.782;9.932;2022-09-01T01:22:07;3.28;;;2.97;;
10645;SDS011;5371;49.782;9.932;2022-09-01T01:24:57;2.88;;;2.60;;
10645;SDS011;5371;49.782;9.932;2022-09-01T01:27:29;6.22;;;2.83;;
10645;SDS011;5371;49.782;9.932;2022-09-01T01:29:59;4.40;;;2.60;;
10645;SDS011;5371;49.782;9.932;2022-09-01T01:32:26;3.53;;;2.92;;
10645;SDS011;5371;49.782;9.932;2022-09-01T01:34:53;3.63;;;2.58;;
10645;SDS011;5371;49.782;9.932;2022-09-01T01:37:22;3.75;;;2.30;;
10645;SDS011;5371;49.782;9.932;2022-09-01T01:39:50;3.90;;;3.00;;
10645;SDS011;5371;49.782;9.932;2022-09-01T01:42:19;3.13;;;2.55;;
10645;SDS011;5371;49.782;9.932;2022-09-01T01:44:48;3.80;;;2.42;;
10645;SDS011;5371;49.782;9.932;2022-09-01T01:47:15;3.63;;;2.80;;
10645;SDS011;5371;49.782;9.932;2022-09-01T01:49:42;3.00;;;2.70;;
10645;SDS011;5371;49.782;9.932;2022-09-01T01:52:10;6.10;;;3.15;;
10645;SDS011;5371;49.782;9.932;2022-09-01T01:54:41;3.65;;;2.75;;
10645;SDS011;5371;49.782;9.932;2022-09-01T01:57:10;6.13;;;2.92;;
10645;SDS011;5371;49.782;9.932;2022-09-01T01:59:44;4.35;;;2.78;;
10645;SDS011;5371;49.782;9.932;2022-09-01T02:02:11;4.85;;;3.10;;
10645;SDS011;5371;49.782;9.932;2022-09-01T02:04:38;6.03;;;2.90;;
10645;SDS011;5371;49.782;9.932;2022-09-01T02:07:10;4.15;;;2.63;;
10645;SDS011;5371;49.782;9.932;2022-09-01T02:09:38;3.85;;;2.90;;
10645;SDS011;5371;49.782;9.932;2022-09-01T02:12:08;3.72;;;2.90;;
10645;SDS011;5371;49.782;9.932;2022-09-01T02:14:35;3.10;;;2.78;;
10645;SDS011;5371;49.782;9.932;2022-09-01T02:17:04;3.15;;;2.85;;
10645;SDS011;5371;49.782;9.932;2022-09-01T02:19:33;2.70;;;2.50;;
10645;SDS011;5371;49.782;9.932;2022-09-01T02:22:02;4.85;;;2.78;;
10645;SDS011;5371;49.782;9.932;2022-09-01T02:24:30;2.92;;;2.70;;
10645;SDS011;5371;49.782;9.932;2022-09-01T02:26:57;3.13;;;2.60;;
10645;SDS011;5371;49.782;9.932;2022-09-01T02:29:26;4.28;;;2.83;;
10645;SDS011;5371;49.782;9.932;2022-09-01T02:31:55;4.88;;;2.85;;
10645;SDS011;5371;49.782;9.932;2022-09-01T02:34:25;4.35;;;2.65;;
10645;SDS011;5371;49.782;9.932;2022-09-01T02:36:54;3.25;;;2.95;;
10645;SDS011;5371;49.782;9.932;2022-09-01T02:39:25;3.10;;;2.78;;
10645;SDS011;5371;49.782;9.932;2022-09-01T02:41:54;5.93;;;3.00;;
10645;SDS011;5371;49.782;9.932;2022-09-01T02:44:24;2.95;;;2.67;;
10645;SDS011;5371;49.782;9.932;2022-09-01T02:46:52;3.17;;;2.65;;
10645;SDS011;5371;49.782;9.932;2022-09-01T02:49:22;2.95;;;2.75;;
10645;SDS011;5371;49.782;9.932;2022-09-01T02:51:55;3.63;;;3.00;;
10645;SDS011;5371;49.782;9.932;2022-09-01T02:54:26;3.83;;;2.97;;
10645;SDS011;5371;49.782;9.932;2022-09-01T02:56:54;3.13;;;2.83;;
10645;SDS011;5371;49.782;9.932;2022-09-01T02:59:23;3.83;;;2.85;;
10645;SDS011;5371;49.782;9.932;2022-09-01T03:01:52;5.25;;;2.70;;
10645;SDS011;5371;49.782;9.932;2022-09-01T03:04:21;3.25;;;2.80;;
10645;SDS011;5371;49.782;9.932;2022-09-01T03:06:51;4.70;;;2.85;;
10645;SDS011;5371;49.782;9.932;2022-09-01T03:09:20;3.90;;;3.08;;
10645;SDS011;5371;49.782;9.932;2022-09-01T03:11:49;3.63;;;2.75;;
10645;SDS011;5371;49.782;9.932;2022-09-01T03:14:17;3.20;;;2.80;;
10645;SDS011;5371;49.782;9.932;2022-09-01T03:16:45;4.57;;;3.22;;
10645;SDS011;5371;49.782;9.932;2022-09-01T03:19:12;3.28;;;2.70;;
10645;SDS011;5371;49.782;9.932;2022-09-01T03:21:41;3.95;;;2.97;;
10645;SDS011;5371;49.782;9.932;2022-09-01T03:24:12;7.80;;;3.03;;
10645;SDS011;5371;49.782;9.932;2022-09-01T03:26:45;3.13;;;2.83;;
10645;SDS011;5371;49.782;9.932;2022-09-01T03:29:14;4.28;;;2.85;;
10645;SDS011;5371;49.782;9.932;2022-09-01T03:31:42;4.20;;;3.20;;
10645;SDS011;5371;49.782;9.932;2022-09-01T03:34:10;4.50;;;2.80;;
10645;SDS011;5371;49.782;9.932;2022-09-01T03:36:42;3.33;;;2.95;;
10645;SDS011;5371;49.782;9.932;2022-09-01T03:39:16;3.72;;;3.13;;
10645;SDS011;5371;49.782;9.932;2022-09-01T03:41:46;3.88;;;2.90;;
10645;SDS011;5371;49.782;9.932;2022-09-01T03:44:13;3.10;;;2.80;;
10645;SDS011;5371;49.782;9.932;2022-09-01T03:46:42;6.20;;;2.80;;
10645;SDS011;5371;49.782;9.932;2022-09-01T03:49:09;6.35;;;3.10;;
10645;SDS011;5371;49.782;9.932;2022-09-01T03:51:40;4.55;;;2.97;;
10645;SDS011;5371;49.782;9.932;2022-09-01T03:54:08;3.20;;;2.90;;
10645;SDS011;5371;49.782;9.932;2022-09-01T03:56:36;4.15;;;3.10;;
10645;SDS011;5371;49.782;9.932;2022-09-01T03:59:08;6.18;;;3.10;;
10645;SDS011;5371;49.782;9.932;2022-09-01T04:01:42;3.65;;;3.13;;
10645;SDS011;5371;49.782;9.932;2022-09-01T04:04:10;3.85;;;3.20;;
10645;SDS011;5371;49.782;9.932;2022-09-01T04:06:39;3.50;;;3.20;;
10645;SDS011;5371;49.782;9.932;2022-09-01T04:09:06;4.95;;;3.35;;
10645;SDS011;5371;49.782;9.932;2022-09-01T04:11:35;5.05;;;3.28;;
10645;SDS011;5371;49.782;9.932;2022-09-01T04:14:03;4.97;;;3.10;;
10645;SDS011;5371;49.782;9.932;2022-09-01T04:16:35;5.05;;;3.20;;
10645;SDS011;5371;49.782;9.932;2022-09-01T04:19:22;3.58;;;3.20;;
10645;SDS011;5371;49.782;9.932;2022-09-01T04:21:51;4.20;;;3.10;;
10645;SDS011;5371;49.782;9.932;2022-09-01T04:24:21;3.63;;;3.33;;
10645;SDS011;5371;49.782;9.932;2022-09-01T04:26:53;7.65;;;3.67;;
10645;SDS011;5371;49.782;9.932;2022-09-01T04:29:22;4.20;;;3.50;;
10645;SDS011;5371;49.782;9.932;2022-09-01T04:31:53;3.47;;;3.17;;
10645;SDS011;5371;49.782;9.932;2022-09-01T04:34:21;5.10;;;3.45;;
10645;SDS011;5371;49.782;9.932;2022-09-01T04:36:49;6.97;;;3.40;;
10645;SDS011;5371;49.782;9.932;2022-09-01T04:39:21;5.35;;;3.25;;
10645;SDS011;5371;49.782;9.932;2022-09-01T04:41:49;4.05;;;3.42;;
10645;SDS011;5371;49.782;9.932;2022-09-01T04:44:16;4.75;;;3.00;;
10645;SDS011;5371;49.782;9.932;2022-09-01T04:46:44;3.90;;;3.20;;
10645;SDS011;5371;49.782;9.932;2022-09-01T04:49:16;4.43;;;2.90;;
10645;SDS011;5371;49.782;9.932;2022-09-01T04:51:47;6.53;;;3.33;;
10645;SDS011;5371;49.782;9.932;2022-09-01T04:54:15;4.43;;;3.33;;
10645;SDS011;5371;49.782;9.932;2022-09-01T04:56:45;4.05;;;3.35;;
10645;SDS011;5371;49.782;9.932;2022-09-01T04:59:15;4.07;;;3.25;;
10645;SDS011;5371;49.782;9.932;2022-09-01T05:01:46;5.22;;;3.60;;
10645;SDS011;5371;49.782;9.932;2022-09-01T05:04:17;6.18;;;3.40;;
10645;SDS011;5371;49.782;9.932;2022-09-01T05:06:48;4.57;;;3.50;;
10645;SDS011;5371;49.782;9.932;2022-09-01T05:09:20;3.83;;;3.15;;
10645;SDS011;5371;49.782;9.932;2022-09-01T05:12:12;4.22;;;3.30;;
10645;SDS011;5371;49.782;9.932;2022-09-01T05:14:43;7.55;;;3.33;;
10645;SDS011;5371;49.782;9.932;2022-09-01T05:17:14;5.68;;;3.38;;
10645;SDS011;5371;49.782;9.932;2022-09-01T05:19:45;3.65;;;3.10;;
10645;SDS011;5371;49.782;9.932;2022-09-01T05:22:15;4.72;;;3.88;;
10645;SDS011;5371;49.782;9.932;2022-09-01T05:24:58;4.20;;;3.17;;
10645;SDS011;5371;49.782;9.932;2022-09-01T05:27:39;6.03;;;3.30;;
10645;SDS011;5371;49.782;9.932;2022-09-01T05:30:09;6.18;;;3.30;;
10645;SDS011;5371;49.782;9.932;2022-09-01T05:32:37;6.47;;;3.50;;
10645;SDS011;5371;49.782;9.932;2022-09-01T05:35:07;5.55;;;3.50;;
10645;SDS011;5371;49.782;9.932;2022-09-01T05:37:35;4.20;;;3.60;;
10645;SDS011;5371;49.782;9.932;2022-09-01T05:40:07;7.35;;;3.80;;
10645;SDS011;5371;49.782;9.932;2022-09-01T05:42:41;9.50;;;3.75;;
10645;SDS011;5371;49.782;9.932;2022-09-01T05:45:08;4.85;;;3.45;;
10645;SDS011;5371;49.782;9.932;2022-09-01T05:47:38;5.63;;;3.83;;
10645;SDS011;5371;49.782;9.932;2022-09-01T05:50:10;4.40;;;4.00;;
10645;SDS011;5371;49.782;9.932;2022-09-01T05:52:37;4.32;;;3.78;;
10645;SDS011;5371;49.782;9.932;2022-09-01T05:55:09;5.18;;;3.75;;
10645;SDS011;5371;49.782;9.932;2022-09-01T05:57:39;6.47;;;3.88;;
10645;SDS011;5371;49.782;9.932;2022-09-01T06:00:07;4.00;;;3.60;;
10645;SDS011;5371;49.782;9.932;2022-09-01T06:02:40;6.45;;;3.90;;
10645;SDS011;5371;49.782;9.932;2022-09-01T06:05:12;6.78;;;3.72;;
10645;SDS011;5371;49.782;9.932;2022-09-01T06:07:39;5.15;;;3.70;;
10645;SDS011;5371;49.782;9.932;2022-09-01T06:10:08;4.13;;;3.72;;
10645;SDS011;5371;49.782;9.932;2022-09-01T06:12:37;5.65;;;3.95;;
10645;SDS011;5371;49.782;9.932;2022-09-01T06:15:05;4.72;;;4.05;;
10645;SDS011;5371;49.782;9.932;2022-09-01T06:17:41;7.95;;;3.97;;
10645;SDS011;5371;49.782;9.932;2022-09-01T06:20:08;6.40;;;3.90;;
10645;SDS011;5371;49.782;9.932;2022-09-01T06:22:38;5.47;;;3.97;;
10645;SDS011;5371;49.782;9.932;2022-09-01T06:25:05;5.45;;;3.90;;
10645;SDS011;5371;49.782;9.932;2022-09-01T06:27:36;7.10;;;3.72;;
10645;SDS011;5371;49.782;9.932;2022-09-01T06:30:09;8.45;;;3.97;;
10645;SDS011;5371;49.782;9.932;2022-09-01T06:32:44;4.30;;;3.60;;
10645;SDS011;5371;49.782;9.932;2022-09-01T06:35:14;7.03;;;3.72;;
10645;SDS011;5371;49.782;9.932;2022-09-01T06:37:44;3.97;;;3.50;;
10645;SDS011;5371;49.782;9.932;2022-09-01T06:40:30;3.97;;;3.60;;
10645;SDS011;5371;49.782;9.932;2022-09-01T06:43:00;7.18;;;3.65;;
10645;SDS011;5371;49.782;9.932;2022-09-01T06:45:37;8.40;;;3.97;;
10645;SDS011;5371;49.782;9.932;2022-09-01T06:48:08;5.07;;;3.50;;
10645;SDS011;5371;49.782;9.932;2022-09-01T06:50:41;7.95;;;3.35;;
10645;SDS011;5371;49.782;9.932;2022-09-01T06:53:12;5.05;;;3.60;;
10645;SDS011;5371;49.782;9.932;2022-09-01T06:55:43;6.25;;;3.80;;
10645;SDS011;5371;49.782;9.932;2022-09-01T06:58:14;3.67;;;3.20;;
10645;SDS011;5371;49.782;9.932;2022-09-01T07:00:47;4.97;;;3.65;;
10645;SDS011;5371;49.782;9.932;2022-09-01T07:03:14;7.22;;;3.63;;
10645;SDS011;5371;49.782;9.932;2022-09-01T07:06:08;4.35;;;3.60;;
10645;SDS011;5371;49.782;9.932;2022-09-01T07:08:57;6.03;;;3.47;;
10645;SDS011;5371;49.782;9.932;2022-09-01T07:11:30;6.25;;;3.40;;
10645;SDS011;5371;49.782;9.932;2022-09-01T07:14:01;5.40;;;3.85;;
10645;SDS011;5371;49.782;9.932;2022-09-01T07:16:31;9.40;;;3.80;;
10645;SDS011;5371;49.782;9.932;2022-09-01T07:19:03;4.63;;;3.53;;
10645;SDS011;5371;49.782;9.932;2022-09-01T07:21:34;7.57;;;3.50;;
10645;SDS011;5371;49.782;9.932;2022-09-01T07:24:03;4.65;;;3.80;;
10645;SDS011;5371;49.782;9.932;2022-09-01T07:26:31;5.95;;;3.80;;
10645;SDS011;5371;49.782;9.932;2022-09-01T07:29:00;5.95;;;3.38;;
10645;SDS011;5371;49.782;9.932;2022-09-01T07:31:29;5.07;;;3.40;;
10645;SDS011;5371;49.782;9.932;2022-09-01T07:34:00;5.07;;;3.65;;
10645;SDS011;5371;49.782;9.932;2022-09-01T07:36:29;6.30;;;3.10;;
10645;SDS011;5371;49.782;9.932;2022-09-01T07:38:57;5.85;;;3.08;;
10645;SDS011;5371;49.782;9.932;2022-09-01T07:41:27;5.97;;;3.00;;
10645;SDS011;5371;49.782;9.932;2022-09-01T07:44:24;3.33;;;2.90;;
10645;SDS011;5371;49.782;9.932;2022-09-01T07:47:15;4.53;;;3.10;;
10645;SDS011;5371;49.782;9.932;2022-09-01T07:49:43;6.00;;;3.25;;
10645;SDS011;5371;49.782;9.932;2022-09-01T07:52:10;3.90;;;2.70;;
10645;SDS011;5371;49.782;9.932;2022-09-01T07:54:37;3.67;;;2.65;;
10645;SDS011;5371;49.782;9.932;2022-09-01T07:57:06;3.35;;;2.92;;
10645;SDS011;5371;49.782;9.932;2022-09-01T07:59:34;5.28;;;3.00;;
10645;SDS011;5371;49.782;9.932;2022-09-01T08:02:17;4.85;;;3.00;;
10645;SDS011;5371;49.782;9.932;2022-09-01T08:04:45;2.83;;;2.50;;
10645;SDS011;5371;49.782;9.932;2022-09-01T08:07:14;2.83;;;2.58;;
10645;SDS011;5371;49.782;9.932;2022-09-01T08:09:42;5.45;;;2.90;;
10645;SDS011;5371;49.782;9.932;2022-09-01T08:12:11;4.43;;;2.75;;
10645;SDS011;5371;49.782;9.932;2022-09-01T08:14:45;3.55;;;2.50;;
10645;SDS011;5371;49.782;9.932;2022-09-01T08:17:18;4.50;;;2.95;;
10645;SDS011;5371;49.782;9.932;2022-09-01T08:19:45;3.90;;;2.80;;
10645;SDS011;5371;49.782;9.932;2022-09-01T08:22:21;2.60;;;2.40;;
10645;SDS011;5371;49.782;9.932;2022-09-01T08:25:00;3.50;;;2.50;;
10645;SDS011;5371;49.782;9.932;2022-09-01T08:27:31;4.15;;;2.92;;
10645;SDS011;5371;49.782;9.932;2022-09-01T08:30:00;3.83;;;2.67;;
10645;SDS011;5371;49.782;9.932;2022-09-01T08:32:29;4.45;;;3.03;;
10645;SDS011;5371;49.782;9.932;2022-09-01T08:34:56;5.05;;;2.70;;
10645;SDS011;5371;49.782;9.932;2022-09-01T08:37:24;2.65;;;2.30;;
10645;SDS011;5371;49.782;9.932;2022-09-01T08:39:51;5.25;;;2.83;;
10645;SDS011;5371;49.782;9.932;2022-09-01T08:42:21;4.03;;;2.80;;
10645;SDS011;5371;49.782;9.932;2022-09-01T08:45:06;3.90;;;2.60;;
10645;SDS011;5371;49.782;9.932;2022-09-01T08:47:39;3.50;;;2.65;;
10645;SDS011;5371;49.782;9.932;2022-09-01T08:50:09;3.10;;;2.80;;
10645;SDS011;5371;49.782;9.932;2022-09-01T08:53:08;4.78;;;2.50;;
10645;SDS011;5371;49.782;9.932;2022-09-01T08:55:45;3.17;;;2.70;;
10645;SDS011;5371;49.782;9.932;2022-09-01T08:58:17;3.20;;;2.90;;
10645;SDS011;5371;49.782;9.932;2022-09-01T09:01:17;6.68;;;2.72;;
10645;SDS011;5371;49.782;9.932;2022-09-01T09:03:59;4.28;;;2.90;;
10645;SDS011;5371;49.782;9.932;2022-09-01T09:06:32;7.38;;;2.53;;
10645;SDS011;5371;49.782;9.932;2022-09-01T09:09:05;2.65;;;2.40;;
10645;SDS011;5371;49.782;9.932;2022-09-01T09:14:30;4.95;;;2.60;;
10645;SDS011;5371;49.782;9.932;2022-09-01T09:17:13;4.93;;;2.60;;
10645;SDS011;5371;49.782;9.932;2022-09-01T09:19:45;4.85;;;2.80;;
10645;SDS011;5371;49.782;9.932;2022-09-01T09:22:14;3.47;;;2.67;;
10645;SDS011;5371;49.782;9.932;2022-09-01T09:24:43;5.13;;;2.90;;
10645;SDS011;5371;49.782;9.932;2022-09-01T09:27:19;2.90;;;2.53;;
10645;SDS011;5371;49.782;9.932;2022-09-01T09:29:49;3.10;;;2.53;;
10645;SDS011;5371;49.782;9.932;2022-09-01T09:32:20;4.20;;;2.53;;
10645;SDS011;5371;49.782;9.932;2022-09-01T09:34:49;5.85;;;2.63;;
10645;SDS011;5371;49.782;9.932;2022-09-01T09:37:21;5.20;;;3.00;;
10645;SDS011;5371;49.782;9.932;2022-09-01T09:40:04;6.07;;;2.80;;
10645;SDS011;5371;49.782;9.932;2022-09-01T09:42:57;4.70;;;2.90;;
10645;SDS011;5371;49.782;9.932;2022-09-01T09:45:29;2.92;;;2.35;;
10645;SDS011;5371;49.782;9.932;2022-09-01T09:48:03;4.75;;;2.58;;
10645;SDS011;5371;49.782;9.932;2022-09-01T09:50:34;2.72;;;2.50;;
10645;SDS011;5371;49.782;9.932;2022-09-01T09:53:10;4.22;;;2.47;;
10645;SDS011;5371;49.782;9.932;2022-09-01T09:55:51;3.72;;;2.40;;
10645;SDS011;5371;49.782;9.932;2022-09-01T09:58:26;5.70;;;2.97;;
10645;SDS011;5371;49.782;9.932;2022-09-01T10:01:00;2.63;;;2.40;;
10645;SDS011;5371;49.782;9.932;2022-09-01T10:03:38;4.50;;;2.80;;
10645;SDS011;5371;49.782;9.932;2022-09-01T10:06:11;3.10;;;2.53;;
10645;SDS011;5371;49.782;9.932;2022-09-01T10:08:43;4.15;;;2.70;;
10645;SDS011;5371;49.782;9.932;2022-09-01T10:11:24;3.53;;;2.42;;
10645;SDS011;5371;49.782;9.932;2022-09-01T10:13:53;3.25;;;2.22;;
10645;SDS011;5371;49.782;9.932;2022-09-01T10:16:23;5.03;;;2.30;;
10645;SDS011;5371;49.782;9.932;2022-09-01T10:18:56;3.38;;;2.22;;
10645;SDS011;5371;49.782;9.932;2022-09-01T10:21:27;5.45;;;2.47;;
10645;SDS011;5371;49.782;9.932;2022-09-01T10:23:58;2.60;;;2.40;;
10645;SDS011;5371;49.782;9.932;2022-09-01T10:26:31;3.05;;;2.20;;
10645;SDS011;5371;49.782;9.932;2022-09-01T10:29:04;3.03;;;2.50;;
10645;SDS011;5371;49.782;9.932;2022-09-01T10:31:33;4.70;;;2.25;;
10645;SDS011;5371;49.782;9.932;2022-09-01T10:34:03;3.00;;;2.20;;
10645;SDS011;5371;49.782;9.932;2022-09-01T10:36:32;4.30;;;2.22;;
10645;SDS011;5371;49.782;9.932;2022-09-01T10:39:01;4.22;;;2.10;;
10645;SDS011;5371;49.782;9.932;2022-09-01T10:41:45;3.33;;;2.00;;
10645;SDS011;5371;49.782;9.932;2022-09-01T10:44:19;2.25;;;2.00;;
10645;SDS011;5371;49.782;9.932;2022-09-01T10:46:49;3.53;;;2.28;;
10645;SDS011;5371;49.782;9.932;2022-09-01T10:49:19;2.20;;;2.00;;
10645;SDS011;5371;49.782;9.932;2022-09-01T10:52:09;2.33;;;2.13;;
10645;SDS011;5371;49.782;9.932;2022-09-01T10:54:52;3.92;;;2.40;;
10645;SDS011;5371;49.782;9.932;2022-09-01T10:57:41;4.53;;;2.40;;
10645;SDS011;5371;49.782;9.932;2022-09-01T11:03:31;4.10;;;2.20;;
10645;SDS011;5371;49.782;9.932;2022-09-01T11:09:35;3.60;;;2.40;;
10645;SDS011;5371;49.782;9.932;2022-09-01T11:14:58;2.65;;;2.40;;
10645;SDS011;5371;49.782;9.932;2022-09-01T11:17:28;3.63;;;2.28;;
10645;SDS011;5371;49.782;9.932;2022-09-01T11:19:59;2.35;;;2.05;;
10645;SDS011;5371;49.782;9.932;2022-09-01T11:22:34;3.28;;;2.40;;
10645;SDS011;5371;49.782;9.932;2022-09-01T11:25:06;4.18;;;2.30;;
10645;SDS011;5371;49.782;9.932;2022-09-01T11:27:57;3.75;;;2.20;;
10645;SDS011;5371;49.782;9.932;2022-09-01T11:30:36;4.65;;;2.20;;
10645;SDS011;5371;49.782;9.932;2022-09-01T11:33:27;3.80;;;2.42;;
10645;SDS011;5371;49.782;9.932;2022-09-01T11:36:11;2.53;;;2.30;;
10645;SDS011;5371;49.782;9.932;2022-09-01T11:38:46;3.17;;;2.38;;
10645;SDS011;5371;49.782;9.932;2022-09-01T11:41:21;2.58;;;1.90;;
10645;SDS011;5371;49.782;9.932;2022-09-01T11:43:53;2.80;;;2.00;;
10645;SDS011;5371;49.782;9.932;2022-09-01T11:46:24;3.03;;;2.33;;
10645;SDS011;5371;49.782;9.932;2022-09-01T11:48:53;2.40;;;2.20;;
10645;SDS011;5371;49.782;9.932;2022-09-01T11:51:22;2.03;;;1.83;;
10645;SDS011;5371;49.782;9.932;2022-09-01T11:53:50;3.50;;;2.30;;
10645;SDS011;5371;49.782;9.932;2022-09-01T11:56:27;2.20;;;2.00;;
10645;SDS011;5371;49.782;9.932;2022-09-01T11:58:54;2.55;;;2.00;;
10645;SDS011;5371;49.782;9.932;2022-09-01T12:01:22;3.00;;;2.10;;
10645;SDS011;5371;49.782;9.932;2022-09-01T12:03:57;2.22;;;2.03;;
10645;SDS011;5371;49.782;9.932;2022-09-01T12:06:50;3.30;;;2.28;;
10645;SDS011;5371;49.782;9.932;2022-09-01T12:09:19;2.47;;;2.03;;
10645;SDS011;5371;49.782;9.932;2022-09-01T12:11:47;2.30;;;2.10;;
10645;SDS011;5371;49.782;9.932;2022-09-01T12:14:18;2.75;;;2.28;;
10645;SDS011;5371;49.782;9.932;2022-09-01T12:16:55;2.75;;;2.10;;
10645;SDS011;5371;49.782;9.932;2022-09-01T12:19:25;2.83;;;2.15;;
10645;SDS011;5371;49.782;9.932;2022-09-01T12:21:57;2.30;;;2.10;;
10645;SDS011;5371;49.782;9.932;2022-09-01T12:24:25;2.20;;;1.98;;
10645;SDS011;5371;49.782;9.932;2022-09-01T12:26:55;2.25;;;1.90;;
10645;SDS011;5371;49.782;9.932;2022-09-01T12:29:23;3.38;;;1.98;;
10645;SDS011;5371;49.782;9.932;2022-09-01T12:31:51;2.55;;;1.90;;
10645;SDS011;5371;49.782;9.932;2022-09-01T12:34:24;3.47;;;2.20;;
10645;SDS011;5371;49.782;9.932;2022-09-01T12:37:04;4.28;;;1.98;;
10645;SDS011;5371;49.782;9.932;2022-09-01T12:39:34;2.47;;;2.08;;
10645;SDS011;5371;49.782;9.932;2022-09-01T12:42:05;3.13;;;2.20;;
10645;SDS011;5371;49.782;9.932;2022-09-01T12:44:46;2.42;;;2.10;;
10645;SDS011;5371;49.782;9.932;2022-09-01T12:53:17;2.30;;;2.10;;
10645;SDS011;5371;49.782;9.932;2022-09-01T12:55:55;2.50;;;2.28;;
10645;SDS011;5371;49.782;9.932;2022-09-01T12:58:27;2.60;;;2.40;;
10645;SDS011;5371;49.782;9.932;2022-09-01T13:00:58;3.13;;;2.10;;
10645;SDS011;5371;49.782;9.932;2022-09-01T13:03:30;3.83;;;2.40;;
10645;SDS011;5371;49.782;9.932;2022-09-01T13:05:58;2.90;;;2.00;;
10645;SDS011;5371;49.782;9.932;2022-09-01T13:08:27;4.22;;;2.15;;
10645;SDS011;5371;49.782;9.932;2022-09-01T13:11:00;2.92;;;2.28;;
10645;SDS011;5371;49.782;9.932;2022-09-01T13:13:29;3.05;;;2.22;;
10645;SDS011;5371;49.782;9.932;2022-09-01T13:15:59;2.20;;;2.00;;
10645;SDS011;5371;49.782;9.932;2022-09-01T13:18:34;3.33;;;2.20;;
10645;SDS011;5371;49.782;9.932;2022-09-01T13:21:01;3.33;;;2.10;;
10645;SDS011;5371;49.782;9.932;2022-09-01T13:23:28;2.67;;;2.10;;
10645;SDS011;5371;49.782;9.932;2022-09-01T13:25:55;3.88;;;2.38;;
10645;SDS011;5371;49.782;9.932;2022-09-01T13:28:23;2.72;;;2.03;;
10645;SDS011;5371;49.782;9.932;2022-09-01T13:30:53;2.67;;;2.40;;
10645;SDS011;5371;49.782;9.932;2022-09-01T13:33:23;2.28;;;2.00;;
10645;SDS011;5371;49.782;9.932;2022-09-01T13:35:50;3.65;;;2.30;;
10645;SDS011;5371;49.782;9.932;2022-09-01T13:38:18;2.45;;;2.10;;
10645;SDS011;5371;49.782;9.932;2022-09-01T13:40:46;3.08;;;1.98;;
10645;SDS011;5371;49.782;9.932;2022-09-01T13:43:15;3.17;;;2.35;;
10645;SDS011;5371;49.782;9.932;2022-09-01T13:45:43;3.05;;;2.10;;
10645;SDS011;5371;49.782;9.932;2022-09-01T13:48:13;2.30;;;2.10;;
10645;SDS011;5371;49.782;9.932;2022-09-01T13:50:42;4.22;;;2.30;;
10645;SDS011;5371;49.782;9.932;2022-09-01T13:53:10;2.50;;;2.10;;
10645;SDS011;5371;49.782;9.932;2022-09-01T13:55:38;2.67;;;2.20;;
10645;SDS011;5371;49.782;9.932;2022-09-01T13:58:06;4.40;;;2.03;;
10645;SDS011;5371;49.782;9.932;2022-09-01T14:00:38;2.70;;;2.05;;
10645;SDS011;5371;49.782;9.932;2022-09-01T14:03:23;3.80;;;2.30;;
10645;SDS011;5371;49.782;9.932;2022-09-01T14:05:54;3.20;;;2.10;;
10645;SDS011;5371;49.782;9.932;2022-09-01T14:08:21;3.88;;;2.10;;
10645;SDS011;5371;49.782;9.932;2022-09-01T14:10:49;3.70;;;2.10;;
10645;SDS011;5371;49.782;9.932;2022-09-01T14:13:18;3.13;;;2.20;;
10645;SDS011;5371;49.782;9.932;2022-09-01T14:15:46;3.28;;;2.00;;
10645;SDS011;5371;49.782;9.932;2022-09-01T14:18:14;2.85;;;2.00;;
10645;SDS011;5371;49.782;9.932;2022-09-01T14:20:44;5.95;;;2.38;;
10645;SDS011;5371;49.782;9.932;2022-09-01T14:23:13;4.53;;;2.22;;
10645;SDS011;5371;49.782;9.932;2022-09-01T14:25:43;2.83;;;2.03;;
10645;SDS011;5371;49.782;9.932;2022-09-01T14:28:11;3.55;;;2.28;;
10645;SDS011;5371;49.782;9.932;2022-09-01T14:30:40;3.00;;;2.03;;
10645;SDS011;5371;49.782;9.932;2022-09-01T14:33:08;2.70;;;2.03;;
10645;SDS011;5371;49.782;9.932;2022-09-01T14:35:37;2.80;;;2.15;;
10645;SDS011;5371;49.782;9.932;2022-09-01T14:38:09;2.65;;;2.30;;
10645;SDS011;5371;49.782;9.932;2022-09-01T14:40:38;3.05;;;2.05;;
10645;SDS011;5371;49.782;9.932;2022-09-01T14:43:08;2.80;;;2.10;;
10645;SDS011;5371;49.782;9.932;2022-09-01T14:45:39;4.80;;;2.20;;
10645;SDS011;5371;49.782;9.932;2022-09-01T14:48:08;2.72;;;2.25;;
10645;SDS011;5371;49.782;9.932;2022-09-01T14:50:38;2.95;;;2.20;;
10645;SDS011;5371;49.782;9.932;2022-09-01T14:53:06;4.47;;;2.13;;
10645;SDS011;5371;49.782;9.932;2022-09-01T14:55:35;3.30;;;1.92;;
10645;SDS011;5371;49.782;9.932;2022-09-01T14:58:03;3.13;;;2.20;;
10645;SDS011;5371;49.782;9.932;2022-09-01T15:00:30;2.97;;;2.17;;
10645;SDS011;5371;49.782;9.932;2022-09-01T15:02:59;2.65;;;2.08;;
10645;SDS011;5371;49.782;9.932;2022-09-01T15:05:29;3.55;;;2.08;;
10645;SDS011;5371;49.782;9.932;2022-09-01T15:07:58;2.25;;;2.03;;
10645;SDS011;5371;49.782;9.932;2022-09-01T15:10:28;2.65;;;2.20;;
10645;SDS011;5371;49.782;9.932;2022-09-01T15:12:57;5.10;;;2.20;;
10645;SDS011;5371;49.782;9.932;2022-09-01T15:15:27;2.92;;;2.25;;
10645;SDS011;5371;49.782;9.932;2022-09-01T15:17:55;3.20;;;1.92;;
10645;SDS011;5371;49.782;9.932;2022-09-01T15:20:25;2.28;;;2.05;;
10645;SDS011;5371;49.782;9.932;2022-09-01T15:23:12;5.07;;;2.28;;
10645;SDS011;5371;49.782;9.932;2022-09-01T15:25:42;2.22;;;2.03;;
10645;SDS011;5371;49.782;9.932;2022-09-01T15:28:09;2.28;;;2.08;;
10645;SDS011;5371;49.782;9.932;2022-09-01T15:30:37;3.83;;;2.30;;
10645;SDS011;5371;49.782;9.932;2022-09-01T15:33:05;2.85;;;2.08;;
10645;SDS011;5371;49.782;9.932;2022-09-01T15:35:33;2.70;;;2.00;;
10645;SDS011;5371;49.782;9.932;2022-09-01T15:38:00;5.78;;;2.42;;
10645;SDS011;5371;49.782;9.932;2022-09-01T15:40:28;2.85;;;2.20;;
10645;SDS011;5371;49.782;9.932;2022-09-01T15:42:59;2.80;;;2.33;;
10645;SDS011;5371;49.782;9.932;2022-09-01T15:45:26;4.40;;;2.20;;